createdAt,value
2022-09-23T00:02:11.017Z,9.50
2022-09-23T00:04:41.271Z,9.40
2022-09-23T00:07:10.896Z,9.30
2022-09-23T00:09:39.164Z,9.30
2022-09-23T00:12:12.113Z,9.30
2022-09-23T00:14:42.071Z,9.20
2022-09-23T00:17:10.697Z,9.10
2022-09-23T00:19:41.106Z,8.70
2022-09-23T00:22:09.694Z,8.50
2022-09-23T00:24:40.268Z,8.50
2022-09-23T00:27:10.429Z,8.40
2022-09-23T00:29:40.323Z,8.50
2022-09-23T00:32:08.702Z,8.50
2022-09-23T00:34:37.069Z,8.50
2022-09-23T00:37:06.227Z,8.50
2022-09-23T00:39:34.560Z,8.40
2022-09-23T00:42:03.271Z,8.30
2022-09-23T00:44:52.760Z,8.40
2022-09-23T00:47:28.021Z,8.40
2022-09-23T00:50:14.644Z,8.40
2022-09-23T00:52:42.973Z,8.40
2022-09-23T00:55:19.774Z,8.30
2022-09-23T00:57:48.741Z,8.30
2022-09-23T01:00:22.251Z,8.30
2022-09-23T01:02:52.301Z,8.30
2022-09-23T01:05:21.371Z,8.20
2022-09-23T01:07:50.927Z,8.30
2022-09-23T01:10:19.824Z,8.20
2022-09-23T01:13:09.235Z,8.20
2022-09-23T01:15:52.401Z,8.10
2022-09-23T01:18:31.235Z,8.10
2022-09-23T01:21:23.596Z,8.10
2022-09-23T01:24:16.517Z,8.10
2022-09-23T01:27:08.788Z,8.10
2022-09-23T01:30:28.886Z,8.00
2022-09-23T01:33:15.172Z,8.00
2022-09-23T01:35:51.350Z,8.00
2022-09-23T01:38:33.579Z,8.10
2022-09-23T01:41:13.830Z,8.00
2022-09-23T01:43:52.434Z,7.90
2022-09-23T01:46:25.533Z,7.90
2022-09-23T01:48:59.434Z,7.90
2022-09-23T01:51:48.481Z,8.00
2022-09-23T01:54:24.989Z,7.90
2022-09-23T01:57:00.750Z,7.70
2022-09-23T01:59:40.267Z,7.70
2022-09-23T02:02:15.303Z,7.60
2022-09-23T02:04:51.533Z,7.60
2022-09-23T02:07:27.026Z,7.50
2022-09-23T02:10:05.826Z,7.50
2022-09-23T02:12:38.354Z,7.40
2022-09-23T02:15:12.531Z,7.30
2022-09-23T02:17:47.076Z,7.20
2022-09-23T02:20:23.176Z,7.20
2022-09-23T02:22:57.710Z,7.10
2022-09-23T02:25:34.025Z,7.00
2022-09-23T02:28:11.590Z,6.90
2022-09-23T02:30:52.852Z,6.90
2022-09-23T02:33:28.271Z,6.70
2022-09-23T02:36:05.921Z,6.80
2022-09-23T02:38:38.095Z,6.80
2022-09-23T02:41:11.632Z,6.70
2022-09-23T02:43:48.863Z,6.70
2022-09-23T02:46:20.461Z,6.60
2022-09-23T02:48:53.403Z,6.60
2022-09-23T02:51:32.866Z,6.70
2022-09-23T02:54:03.588Z,6.70
2022-09-23T02:56:37.370Z,6.70
2022-09-23T02:59:06.314Z,6.70
2022-09-23T03:01:47.796Z,6.70
2022-09-23T03:04:31.591Z,6.60
2022-09-23T03:07:06.344Z,6.60
2022-09-23T03:09:43.087Z,6.50
2022-09-23T03:12:21.257Z,6.40
2022-09-23T03:14:55.674Z,6.30
2022-09-23T03:17:44.649Z,6.20
2022-09-23T03:20:21.503Z,6.30
2022-09-23T03:23:01.164Z,6.30
2022-09-23T03:25:41.706Z,6.30
2022-09-23T03:28:13.577Z,6.20
2022-09-23T03:30:43.534Z,6.10
2022-09-23T03:33:16.725Z,6.10
2022-09-23T03:36:09.069Z,6.00
2022-09-23T03:38:44.103Z,6.00
2022-09-23T03:41:16.690Z,6.00
2022-09-23T03:43:48.387Z,6.10
2022-09-23T03:46:18.529Z,6.10
2022-09-23T03:48:51.404Z,6.10
2022-09-23T03:51:24.959Z,6.00
2022-09-23T03:53:57.829Z,5.90
2022-09-23T03:56:29.029Z,5.90
2022-09-23T03:59:00.732Z,5.90
2022-09-23T04:01:29.798Z,5.90
2022-09-23T04:03:57.993Z,5.90
2022-09-23T04:06:26.620Z,5.90
2022-09-23T04:08:56.400Z,6.00
2022-09-23T04:11:31.429Z,6.10
2022-09-23T04:14:00.463Z,6.10
2022-09-23T04:16:34.414Z,6.00
2022-09-23T04:19:03.828Z,6.00
2022-09-23T04:21:33.627Z,6.00
2022-09-23T04:24:07.513Z,6.00
2022-09-23T04:26:39.548Z,5.90
2022-09-23T04:29:08.702Z,6.00
2022-09-23T04:31:39.237Z,5.90
2022-09-23T04:34:08.520Z,5.90
2022-09-23T04:36:37.068Z,5.80
2022-09-23T04:39:15.115Z,5.80
2022-09-23T04:41:43.881Z,5.80
2022-09-23T04:44:14.001Z,5.90
2022-09-23T04:46:50.692Z,5.80
2022-09-23T04:49:23.741Z,5.90
2022-09-23T04:51:54.150Z,5.90
2022-09-23T04:54:27.053Z,5.90
2022-09-23T04:56:55.684Z,5.90
2022-09-23T04:59:26.175Z,5.90
2022-09-23T05:01:56.479Z,6.00
2022-09-23T05:04:34.847Z,6.00
2022-09-23T05:07:05.626Z,6.00
2022-09-23T05:09:35.232Z,5.90
2022-09-23T05:12:03.763Z,5.90
2022-09-23T05:14:34.098Z,6.00
2022-09-23T05:17:02.896Z,5.90
2022-09-23T05:19:32.838Z,5.70
2022-09-23T05:22:02.418Z,5.60
2022-09-23T05:24:35.454Z,5.60
2022-09-23T05:27:12.517Z,5.60
2022-09-23T05:29:54.728Z,5.70
2022-09-23T05:32:31.855Z,5.70
2022-09-23T05:35:05.955Z,5.90
2022-09-23T05:37:55.430Z,6.00
2022-09-23T05:40:31.837Z,6.00
2022-09-23T05:43:00.216Z,6.20
2022-09-23T05:45:28.519Z,6.20
2022-09-23T05:48:37.364Z,6.10
2022-09-23T05:51:13.499Z,6.20
2022-09-23T05:53:46.404Z,6.20
2022-09-23T05:56:52.828Z,6.30
2022-09-23T05:59:30.537Z,6.60
2022-09-23T06:01:59.137Z,6.70
2022-09-23T06:04:51.733Z,6.90
2022-09-23T06:07:28.344Z,7.00
2022-09-23T06:10:00.072Z,7.10
2022-09-23T06:12:54.008Z,7.30
2022-09-23T06:15:24.067Z,7.20
2022-09-23T06:17:55.086Z,7.30
2022-09-23T06:20:43.040Z,7.40
2022-09-23T06:23:24.196Z,7.70
2022-09-23T06:25:55.862Z,8.00
2022-09-23T06:28:25.770Z,8.20
2022-09-23T06:30:58.956Z,8.20
2022-09-23T06:33:35.744Z,8.30
2022-09-23T06:36:06.720Z,8.30
2022-09-23T06:38:46.684Z,8.60
2022-09-23T06:41:20.180Z,8.60
2022-09-23T06:43:59.475Z,8.60
2022-09-23T06:47:07.795Z,8.50
2022-09-23T06:49:36.270Z,8.80
2022-09-23T06:52:21.503Z,8.80
2022-09-23T06:55:38.550Z,8.80
2022-09-23T06:58:09.335Z,8.90
2022-09-23T07:00:41.468Z,9.20
2022-09-23T07:03:46.872Z,9.40
2022-09-23T07:06:22.330Z,9.60
2022-09-23T07:09:03.225Z,9.60
2022-09-23T07:11:38.141Z,9.50
2022-09-23T07:14:21.080Z,9.60
2022-09-23T07:17:01.121Z,9.60
2022-09-23T07:19:40.980Z,9.60
2022-09-23T07:22:20.325Z,9.70
2022-09-23T07:24:48.708Z,9.60
2022-09-23T07:27:20.154Z,9.70
2022-09-23T07:29:51.096Z,9.70
2022-09-23T07:32:26.699Z,9.80
2022-09-23T07:34:59.476Z,9.90
2022-09-23T07:37:35.612Z,10.00
2022-09-23T07:40:27.951Z,10.40
2022-09-23T07:43:09.675Z,10.90
2022-09-23T07:46:18.926Z,11.20
2022-09-23T07:48:53.126Z,11.60
2022-09-23T07:51:24.156Z,12.00
2022-09-23T07:54:07.316Z,11.80
2022-09-23T07:56:42.002Z,11.60
2022-09-23T07:59:20.220Z,11.70
2022-09-23T08:01:56.217Z,11.90
2022-09-23T08:04:36.705Z,11.70
2022-09-23T08:07:10.668Z,12.20
2022-09-23T08:09:44.314Z,12.60
2022-09-23T08:12:33.281Z,12.80
2022-09-23T08:15:02.602Z,13.10
2022-09-23T08:17:30.953Z,13.50
2022-09-23T08:20:01.274Z,13.50
2022-09-23T08:22:31.610Z,13.60
2022-09-23T08:25:20.626Z,13.80
2022-09-23T08:27:52.452Z,14.00
2022-09-23T08:30:20.881Z,14.10
2022-09-23T08:33:17.489Z,14.20
2022-09-23T08:35:59.876Z,14.10
2022-09-23T08:38:44.888Z,14.30
2022-09-23T08:41:32.699Z,14.40
2022-09-23T08:44:36.152Z,14.30
2022-09-23T08:47:14.143Z,14.60
2022-09-23T08:49:51.598Z,14.80
2022-09-23T08:53:08.991Z,14.60
2022-09-23T08:55:44.827Z,14.80
2022-09-23T08:58:36.381Z,14.80
2022-09-23T09:01:19.192Z,14.60
2022-09-23T09:03:55.090Z,14.60
2022-09-23T09:07:34.641Z,15.00
2022-09-23T09:10:16.731Z,15.20
2022-09-23T09:13:31.191Z,15.20
2022-09-23T09:16:31.673Z,15.40
2022-09-23T09:19:36.467Z,15.70
2022-09-23T09:22:13.939Z,15.80
2022-09-23T09:24:44.475Z,15.90
2022-09-23T09:27:19.114Z,15.90
2022-09-23T09:29:55.916Z,16.00
2022-09-23T09:32:41.808Z,16.10
2022-09-23T09:35:53.630Z,16.10
2022-09-23T09:38:28.957Z,16.20
2022-09-23T09:41:16.259Z,16.00
2022-09-23T09:43:59.413Z,16.50
2022-09-23T09:47:00.283Z,16.70
2022-09-23T09:50:24.435Z,16.70
2022-09-23T09:53:00.691Z,16.30
2022-09-23T09:55:33.779Z,16.60
2022-09-23T09:58:19.564Z,17.00
2022-09-23T10:00:58.807Z,17.50
2022-09-23T10:03:37.304Z,17.80
2022-09-23T10:06:32.956Z,17.60
2022-09-23T10:09:22.061Z,17.70
2022-09-23T10:12:14.835Z,17.50
2022-09-23T10:14:43.517Z,17.10
2022-09-23T10:17:36.559Z,17.80
2022-09-23T10:20:44.484Z,17.50
2022-09-23T10:24:05.218Z,17.60
2022-09-23T10:26:55.847Z,18.00
2022-09-23T10:30:32.326Z,18.30
2022-09-23T10:32:54.908Z,18.40
2022-09-23T10:35:29.520Z,18.40
2022-09-23T10:38:16.514Z,18.10
2022-09-23T10:41:20.301Z,17.30
2022-09-23T10:44:20.024Z,17.80
2022-09-23T10:47:04.234Z,18.60
2022-09-23T10:49:58.040Z,18.80
2022-09-23T10:52:41.059Z,19.20
2022-09-23T10:55:32.813Z,19.50
2022-09-23T10:58:53.820Z,19.80
2022-09-23T11:01:39.543Z,20.10
2022-09-23T11:04:37.276Z,19.00
2022-09-23T11:07:24.247Z,19.40
2022-09-23T11:10:35.439Z,19.60
2022-09-23T11:13:17.997Z,19.50
2022-09-23T11:15:58.075Z,19.30
2022-09-23T11:19:11.007Z,19.70
2022-09-23T11:22:06.287Z,19.80
2022-09-23T11:25:10.786Z,19.10
2022-09-23T11:27:50.799Z,19.50
2022-09-23T11:30:21.230Z,19.80
2022-09-23T11:33:14.681Z,19.80
2022-09-23T11:35:49.850Z,19.70
2022-09-23T11:38:26.032Z,19.30
2022-09-23T11:41:01.731Z,19.40
2022-09-23T11:43:35.192Z,19.50
2022-09-23T11:46:13.794Z,19.50
2022-09-23T11:48:54.351Z,19.80
2022-09-23T11:51:31.604Z,19.20
2022-09-23T11:54:05.144Z,18.80
2022-09-23T11:56:49.122Z,18.70
2022-09-23T11:59:36.927Z,18.70
2022-09-23T12:02:24.620Z,19.00
2022-09-23T12:05:13.055Z,19.00
2022-09-23T12:07:55.559Z,19.00
2022-09-23T12:10:30.022Z,19.00
2022-09-23T12:13:21.552Z,19.10
2022-09-23T12:16:05.807Z,19.10
2022-09-23T12:18:49.034Z,19.30
2022-09-23T12:24:49.764Z,19.30
2022-09-23T12:27:25.686Z,19.50
2022-09-23T12:29:59.300Z,19.50
2022-09-23T12:32:29.677Z,19.30
2022-09-23T12:34:58.160Z,19.30
2022-09-23T12:37:35.586Z,19.40
2022-09-23T12:40:10.264Z,19.20
2022-09-23T12:42:45.981Z,19.30
2022-09-23T12:45:36.840Z,19.30
2022-09-23T12:48:27.962Z,19.10
2022-09-23T12:51:08.045Z,19.00
2022-09-23T12:53:56.144Z,18.80
2022-09-23T12:56:31.170Z,18.20
2022-09-23T12:59:14.619Z,17.80
2022-09-23T13:01:45.923Z,18.00
2022-09-23T13:04:50.847Z,18.40
2022-09-23T13:07:30.226Z,18.20
2022-09-23T13:10:07.757Z,18.20
2022-09-23T13:12:40.118Z,18.30
2022-09-23T13:15:25.341Z,18.10
2022-09-23T13:17:55.108Z,17.90
2022-09-23T13:20:40.579Z,18.00
2022-09-23T13:23:31.282Z,18.30
2022-09-23T13:26:01.724Z,18.40
2022-09-23T13:28:37.051Z,18.60
2022-09-23T13:31:07.736Z,18.70
2022-09-23T13:33:45.157Z,19.00
2022-09-23T13:36:17.363Z,18.90
2022-09-23T13:38:46.977Z,19.10
2022-09-23T13:41:18.841Z,19.30
2022-09-23T13:44:00.730Z,19.30
2022-09-23T13:46:31.191Z,19.50
2022-09-23T13:49:01.230Z,19.70
2022-09-23T13:51:33.367Z,19.70
2022-09-23T13:54:04.501Z,19.20
2022-09-23T13:56:35.359Z,18.70
2022-09-23T13:59:25.021Z,18.40
2022-09-23T14:02:04.060Z,17.80
2022-09-23T14:04:33.754Z,17.80
2022-09-23T14:07:03.124Z,18.00
2022-09-23T14:09:33.354Z,17.90
2022-09-23T14:12:03.142Z,17.90
2022-09-23T14:14:32.272Z,18.00
2022-09-23T14:17:01.036Z,17.80
2022-09-23T14:19:29.281Z,18.00
2022-09-23T14:22:00.082Z,18.00
2022-09-23T14:24:35.344Z,18.20
2022-09-23T14:27:19.236Z,18.00
2022-09-23T14:29:51.348Z,17.50
2022-09-23T14:32:27.399Z,17.60
2022-09-23T14:35:17.137Z,17.70
2022-09-23T14:38:06.115Z,17.70
2022-09-23T14:40:36.174Z,17.60
2022-09-23T14:43:07.876Z,17.50
2022-09-23T14:45:39.685Z,17.40
2022-09-23T14:48:10.284Z,17.20
2022-09-23T14:50:39.814Z,17.10
2022-09-23T14:53:40.367Z,17.10
2022-09-23T14:56:18.068Z,17.20
2022-09-23T14:58:52.552Z,17.20
2022-09-23T15:01:39.801Z,17.30
2022-09-23T15:04:16.914Z,17.30
2022-09-23T15:06:50.265Z,17.40
2022-09-23T15:09:26.236Z,17.40
2022-09-23T15:11:58.313Z,17.50
2022-09-23T15:14:38.266Z,17.60
2022-09-23T15:17:16.065Z,17.60
2022-09-23T15:19:44.495Z,17.70
2022-09-23T15:22:13.296Z,17.60
2022-09-23T15:24:47.692Z,17.50
2022-09-23T15:27:33.312Z,17.30
2022-09-23T15:30:14.693Z,17.30
2022-09-23T15:32:43.595Z,17.20
2022-09-23T15:35:15.788Z,17.10
2022-09-23T15:37:44.778Z,17.00
2022-09-23T15:40:20.940Z,17.00
2022-09-23T15:42:51.667Z,16.80
2022-09-23T15:45:22.083Z,16.80
2022-09-23T15:47:52.360Z,16.80
2022-09-23T15:50:21.428Z,16.60
2022-09-23T15:52:49.917Z,16.50
2022-09-23T15:55:23.613Z,16.60
2022-09-23T15:57:52.381Z,16.60
2022-09-23T16:00:21.313Z,16.50
2022-09-23T16:02:50.524Z,16.40
2022-09-23T16:05:26.598Z,16.30
2022-09-23T16:07:55.025Z,16.10
2022-09-23T16:10:24.763Z,16.00
2022-09-23T16:12:54.920Z,15.90
2022-09-23T16:15:25.352Z,15.90
2022-09-23T16:17:53.545Z,15.90
2022-09-23T16:20:21.750Z,15.80
2022-09-23T16:22:55.110Z,15.60
2022-09-23T16:25:28.417Z,15.60
2022-09-23T16:27:56.963Z,15.70
2022-09-23T16:30:25.728Z,15.60
2022-09-23T16:32:54.422Z,15.70
2022-09-23T16:35:24.073Z,15.60
2022-09-23T16:37:53.377Z,15.60
2022-09-23T16:40:24.912Z,15.60
2022-09-23T16:42:54.852Z,15.40
2022-09-23T16:45:24.066Z,15.60
2022-09-23T16:47:54.357Z,15.50
2022-09-23T16:50:24.395Z,15.20
2022-09-23T16:52:55.185Z,15.30
2022-09-23T16:55:27.249Z,15.40
2022-09-23T16:57:56.306Z,15.40
2022-09-23T17:00:42.737Z,15.30
2022-09-23T17:03:31.178Z,15.20
2022-09-23T17:06:01.569Z,15.00
2022-09-23T17:08:33.274Z,15.00
2022-09-23T17:11:03.078Z,15.10
2022-09-23T17:13:32.496Z,15.10
2022-09-23T17:16:01.062Z,14.90
2022-09-23T17:18:29.753Z,14.70
2022-09-23T17:21:00.132Z,14.70
2022-09-23T17:23:29.175Z,14.50
2022-09-23T17:25:57.478Z,14.50
2022-09-23T17:28:27.804Z,14.30
2022-09-23T17:31:00.733Z,14.30
2022-09-23T17:33:35.103Z,14.10
2022-09-23T17:36:08.391Z,14.00
2022-09-23T17:38:39.270Z,14.10
2022-09-23T17:41:09.156Z,14.30
2022-09-23T17:43:39.349Z,14.30
2022-09-23T17:46:10.172Z,14.40
2022-09-23T17:48:41.372Z,14.30
2022-09-23T17:51:12.276Z,14.10
2022-09-23T17:53:42.514Z,14.20
2022-09-23T17:56:14.985Z,14.20
2022-09-23T17:58:46.090Z,14.40
2022-09-23T18:01:19.991Z,14.20
2022-09-23T18:03:48.654Z,14.30
2022-09-23T18:06:19.329Z,14.30
2022-09-23T18:08:49.358Z,14.20
2022-09-23T18:11:19.471Z,14.30
2022-09-23T18:13:54.501Z,14.20
2022-09-23T18:16:24.914Z,14.20
2022-09-23T18:18:53.725Z,14.00
2022-09-23T18:21:22.210Z,13.90
2022-09-23T18:23:50.709Z,14.00
2022-09-23T18:26:20.973Z,13.90
2022-09-23T18:28:49.855Z,13.80
2022-09-23T18:31:19.698Z,13.80
2022-09-23T18:33:51.499Z,13.70
2022-09-23T18:36:19.882Z,13.70
2022-09-23T18:38:48.633Z,13.60
2022-09-23T18:41:28.550Z,13.60
2022-09-23T18:44:11.241Z,13.60
2022-09-23T18:46:55.352Z,13.60
2022-09-23T18:49:40.728Z,13.60
2022-09-23T18:52:09.434Z,13.50
2022-09-23T18:54:37.490Z,13.50
2022-09-23T18:57:11.522Z,13.50
2022-09-23T18:59:39.966Z,13.50
2022-09-23T19:02:10.257Z,13.60
2022-09-23T19:04:52.625Z,13.60
2022-09-23T19:07:20.689Z,13.70
2022-09-23T19:09:48.896Z,13.60
2022-09-23T19:12:17.135Z,13.50
2022-09-23T19:14:46.677Z,13.50
2022-09-23T19:17:16.757Z,13.50
2022-09-23T19:19:45.946Z,13.60
2022-09-23T19:22:14.156Z,13.50
2022-09-23T19:24:42.814Z,13.60
2022-09-23T19:27:11.035Z,13.40
2022-09-23T19:29:40.147Z,13.40
2022-09-23T19:32:08.529Z,13.40
2022-09-23T19:34:38.733Z,13.40
2022-09-23T19:37:09.448Z,13.40
2022-09-23T19:39:37.717Z,13.30
2022-09-23T19:42:07.652Z,13.30
2022-09-23T19:44:37.759Z,13.20
2022-09-23T19:47:08.338Z,13.20
2022-09-23T19:49:38.455Z,13.30
2022-09-23T19:52:06.861Z,13.30
2022-09-23T19:54:35.129Z,13.10
2022-09-23T19:57:04.037Z,13.10
2022-09-23T19:59:32.910Z,13.20
2022-09-23T20:02:01.455Z,13.20
2022-09-23T20:04:30.031Z,13.20
2022-09-23T20:07:04.078Z,13.10
2022-09-23T20:09:32.309Z,13.20
2022-09-23T20:12:02.613Z,13.10
2022-09-23T20:14:31.415Z,13.10
2022-09-23T20:17:01.173Z,13.20
2022-09-23T20:19:29.894Z,13.40
2022-09-23T20:22:13.351Z,13.30
2022-09-23T20:24:42.069Z,13.20
2022-09-23T20:27:10.378Z,13.30
2022-09-23T20:29:38.657Z,13.10
2022-09-23T20:32:07.104Z,12.90
2022-09-23T20:34:35.732Z,12.80
2022-09-23T20:37:06.065Z,12.80
2022-09-23T20:39:35.731Z,12.80
2022-09-23T20:42:04.076Z,12.80
2022-09-23T20:44:34.508Z,12.90
2022-09-23T20:47:02.903Z,12.80
2022-09-23T20:49:32.716Z,12.90
2022-09-23T20:52:02.836Z,12.90
2022-09-23T20:54:35.057Z,13.10
2022-09-23T20:57:06.247Z,13.00
2022-09-23T20:59:34.958Z,12.80
2022-09-23T21:02:03.772Z,12.70
2022-09-23T21:04:32.255Z,12.70
2022-09-23T21:07:01.122Z,12.70
2022-09-23T21:09:31.557Z,12.70
2022-09-23T21:12:02.063Z,12.80
2022-09-23T21:14:31.404Z,12.70
2022-09-23T21:17:02.702Z,12.70
2022-09-23T21:19:31.358Z,12.70
2022-09-23T21:22:00.026Z,12.70
2022-09-23T21:27:19.265Z,12.90
2022-09-23T21:29:47.787Z,12.80
2022-09-23T21:32:16.305Z,12.90
2022-09-23T21:34:44.725Z,12.90
2022-09-23T21:37:13.364Z,12.80
2022-09-23T21:40:06.803Z,12.70
2022-09-23T21:42:36.866Z,12.70
2022-09-23T21:45:06.181Z,12.40
2022-09-23T21:47:34.444Z,12.20
2022-09-23T21:50:04.212Z,12.20
2022-09-23T21:52:32.528Z,12.10
2022-09-23T21:55:01.334Z,12.20
2022-09-23T21:57:31.356Z,12.10
2022-09-23T22:00:02.436Z,12.30
2022-09-23T22:02:30.751Z,12.30
2022-09-23T22:04:59.074Z,12.30
2022-09-23T22:07:27.192Z,12.40
2022-09-23T22:09:55.260Z,12.50
2022-09-23T22:12:24.180Z,12.50
2022-09-23T22:14:52.443Z,12.40
2022-09-23T22:17:23.056Z,12.50
2022-09-23T22:19:51.155Z,12.60
2022-09-23T22:22:19.835Z,12.50
2022-09-23T22:24:49.614Z,12.40
2022-09-23T22:27:20.284Z,12.40
2022-09-23T22:30:13.550Z,12.40
2022-09-23T22:32:54.371Z,12.30
2022-09-23T22:35:23.729Z,12.20
2022-09-23T22:37:57.542Z,12.30
2022-09-23T22:40:28.843Z,12.40
2022-09-23T22:42:57.638Z,12.50
2022-09-23T22:45:25.825Z,12.50
2022-09-23T22:47:55.507Z,12.50
2022-09-23T22:50:23.995Z,12.50
2022-09-23T22:52:53.259Z,12.50
2022-09-23T22:55:22.329Z,12.40
2022-09-23T22:58:30.790Z,12.40
2022-09-23T23:00:58.076Z,12.40
2022-09-23T23:03:28.234Z,12.20
2022-09-23T23:06:00.903Z,12.00
2022-09-23T23:08:29.564Z,12.00
2022-09-23T23:10:58.959Z,12.00
2022-09-23T23:13:32.115Z,12.00
2022-09-23T23:16:03.638Z,12.00
2022-09-23T23:18:35.492Z,12.10
2022-09-23T23:21:08.280Z,12.20
2022-09-23T23:23:40.618Z,12.00
2022-09-23T23:26:14.683Z,11.90
2022-09-23T23:28:44.762Z,12.00
2022-09-23T23:31:16.181Z,12.00
2022-09-23T23:33:47.309Z,12.00
2022-09-23T23:36:18.299Z,11.70
2022-09-23T23:38:47.829Z,11.70
2022-09-23T23:41:20.219Z,11.70
2022-09-23T23:43:55.948Z,11.80
2022-09-23T23:46:26.613Z,11.80
2022-09-23T23:49:00.265Z,11.90
2022-09-23T23:51:29.971Z,11.90
2022-09-23T23:53:59.853Z,11.80
2022-09-23T23:56:28.821Z,11.90
2022-09-23T23:58:57.929Z,11.90
